OJAM

Amman-Marka International Airport

Amman, Jordan
TAF OJAM 182300Z 1900/2006 VRB02KT 3000 BR NSC PROB30 1902/1906 0800 FG BECMG 1906/1908 12008KT 5000 HZ SCT035
Issued Valid From Valid To
Jan-18 @ 23:00 UTC
(4 hours ago)
Jan-19 @ 00:00 UTC
(3 hours ago)
Jan-20 @ 06:00 UTC
(-1 days ago)
Jan-19 @ 00:00 to Jan-19 @ 06:00
TAF OJAM 182300Z 1900/2006 VRB02KT 3000 BR NSC
Wind Visibility Clouds Conditions
Variable at 2 knots 2,993 meters
  • No significant clouds
  • Mist
Probable  (Probability 30%) Jan-19 @ 02:00 to Jan-19 @ 06:00
PROB30 1902/1906 0800 FG
Visibility Conditions
805 meters
  • Fog
Becoming Jan-19 @ 06:00 to Jan-20 @ 06:00
BECMG 1906/1908 12008KT 5000 HZ SCT035
Wind Visibility Clouds Conditions
120° at 8 knots 5,005 meters
  • Scattered at 3,500' AGL
  • Haze
TAF OJAM 182300Z 1900/2006 VRB02KT 3000 BR NSC PROB30 1902/1906 0800 FG BECMG 1906/1908 12008KT 5000 HZ SCT035
Issued Jan-18 @ 23:00 UTC
(4 hours ago)
Valid From Jan-19 @ 00:00 UTC
(3 hours ago)
Valid To Jan-20 @ 06:00 UTC
(-1 days ago)
Jan-19 @ 00:00 - Jan-19 @ 06:00
Wind Visibility
Variable at 2 knots 2,993 meters
Clouds
  • No significant clouds
Conditions
  • Mist
Probability 30% Probable Jan-19 @ 02:00 - Jan-19 @ 06:00
Conditions
  • Fog
Becoming Jan-19 @ 06:00 - Jan-20 @ 06:00
Wind Visibility
120° at 8 knots 5,005 meters
Clouds
  • Scattered at 3,500' AGL
Conditions
  • Haze